createdAt,value
2019-02-08T00:04:32.947Z,34.20
2019-02-08T00:09:35.584Z,32.23
2019-02-08T00:14:38.850Z,30.73
2019-02-08T00:19:41.259Z,35.70
2019-02-08T00:24:43.834Z,32.87
2019-02-08T00:29:46.008Z,33.00
2019-02-08T00:34:48.176Z,33.20
2019-02-08T00:39:50.382Z,33.33
2019-02-08T00:44:52.574Z,32.37
2019-02-08T00:49:54.797Z,30.47
2019-02-08T00:54:58.614Z,34.97
2019-02-08T01:00:01.718Z,33.10
2019-02-08T01:05:08.603Z,40.10
2019-02-08T01:10:16.969Z,41.33
2019-02-08T01:15:20.290Z,35.40
2019-02-08T01:20:23.135Z,32.60
2019-02-08T01:25:26.356Z,33.13
2019-02-08T01:30:29.601Z,35.27
2019-02-08T01:35:32.087Z,38.30
2019-02-08T01:40:36.078Z,34.33
2019-02-08T01:45:38.333Z,34.13
2019-02-08T01:50:40.504Z,30.47
2019-02-08T01:55:43.049Z,32.37
2019-02-08T02:00:45.592Z,33.03
2019-02-08T02:05:48.246Z,33.43
2019-02-08T02:10:50.651Z,37.90
2019-02-08T02:15:53.038Z,33.13
2019-02-08T02:20:55.228Z,30.33
2019-02-08T02:25:57.880Z,35.47
2019-02-08T02:31:00.147Z,33.30
2019-02-08T02:36:03.726Z,32.50
2019-02-08T02:41:06.507Z,32.23
2019-02-08T02:46:09.218Z,29.40
2019-02-08T02:51:12.588Z,35.00
2019-02-08T02:56:14.773Z,35.80
2019-02-08T03:01:17.398Z,33.10
2019-02-08T03:06:21.615Z,35.67
2019-02-08T03:11:24.514Z,33.57
2019-02-08T03:16:27.117Z,33.70
2019-02-08T03:21:29.348Z,34.83
2019-02-08T03:26:32.529Z,31.30
2019-02-08T03:31:34.690Z,33.23
2019-02-08T03:36:37.223Z,36.67
2019-02-08T03:41:39.397Z,30.90
2019-02-08T03:46:41.904Z,31.30
2019-02-08T03:51:44.099Z,30.40
2019-02-08T03:56:47.789Z,32.00
2019-02-08T04:01:50.353Z,26.83
2019-02-08T04:06:53.256Z,28.00
2019-02-08T04:11:55.786Z,32.50
2019-02-08T04:16:58.348Z,29.83
2019-02-08T04:22:00.541Z,32.80
2019-02-08T04:27:03.556Z,29.50
2019-02-08T04:32:05.764Z,26.73
2019-02-08T04:37:08.361Z,32.20
2019-02-08T04:42:10.529Z,29.47
2019-02-08T04:47:13.042Z,29.33
2019-02-08T04:52:15.823Z,33.63
2019-02-08T04:57:19.376Z,28.47
2019-02-08T05:02:21.518Z,27.23
2019-02-08T05:07:23.992Z,32.20
2019-02-08T05:12:26.445Z,24.43
2019-02-08T05:17:28.741Z,27.70
2019-02-08T05:22:31.334Z,28.47
2019-02-08T05:27:34.658Z,31.10
2019-02-08T05:32:38.376Z,29.57
2019-02-08T05:37:40.563Z,27.73
2019-02-08T05:42:42.736Z,27.60
2019-02-08T05:47:45.036Z,28.33
2019-02-08T05:52:47.739Z,31.90
2019-02-08T05:57:50.796Z,31.07
2019-02-08T06:02:53.469Z,32.20
2019-02-08T06:07:56.296Z,27.60
2019-02-08T06:12:59.037Z,28.23
2019-02-08T06:18:01.737Z,25.70
2019-02-08T06:23:05.656Z,25.83
2019-02-08T06:28:08.742Z,27.10
2019-02-08T06:33:11.254Z,25.10
2019-02-08T06:38:14.992Z,28.30
2019-02-08T06:43:17.367Z,21.90
2019-02-08T06:48:20.195Z,22.63
2019-02-08T06:53:22.474Z,32.83
2019-02-08T06:58:37.848Z,28.77
2019-02-08T07:04:02.658Z,26.47
2019-02-08T07:09:15.795Z,31.87
2019-02-08T07:14:30.732Z,27.00
2019-02-08T07:19:59.631Z,25.27
2019-02-08T07:25:24.414Z,23.10
2019-02-08T07:30:55.488Z,26.37
2019-02-08T07:36:09.608Z,24.20
2019-02-08T07:41:23.962Z,24.30
2019-02-08T07:46:33.173Z,22.10
2019-02-08T07:51:56.557Z,25.10
2019-02-08T07:57:15.513Z,24.07
2019-02-08T08:02:26.469Z,24.40
2019-02-08T08:07:47.530Z,21.47
2019-02-08T08:13:15.681Z,22.27
2019-02-08T08:18:43.541Z,18.63
2019-02-08T08:24:12.678Z,20.20
2019-02-08T08:29:35.595Z,18.20
2019-02-08T08:35:04.708Z,17.00
2019-02-08T08:41:03.642Z,20.80
2019-02-08T08:46:45.255Z,18.97
2019-02-08T08:52:49.163Z,15.30
2019-02-08T08:58:26.332Z,19.87
2019-02-08T09:04:28.962Z,16.37
2019-02-08T09:10:30.059Z,22.23
2019-02-08T09:16:34.987Z,14.13
2019-02-08T09:22:12.621Z,16.10
2019-02-08T09:28:10.994Z,13.23
2019-02-08T09:33:58.803Z,12.93
2019-02-08T09:40:00.562Z,13.00
2019-02-08T09:45:56.357Z,11.03
2019-02-08T09:52:10.680Z,11.33
2019-02-08T09:58:30.474Z,11.57
2019-02-08T10:04:27.253Z,8.87
2019-02-08T10:10:35.396Z,11.63
2019-02-08T10:17:00.586Z,6.40
2019-02-08T10:22:58.985Z,8.20
2019-02-08T10:29:04.535Z,11.67
2019-02-08T10:35:32.080Z,8.50
2019-02-08T10:41:30.416Z,11.10
2019-02-08T10:47:15.042Z,10.33
2019-02-08T10:53:09.007Z,11.67
2019-02-08T10:59:20.380Z,12.17
2019-02-08T11:05:28.363Z,10.30
2019-02-08T11:11:17.542Z,9.80
2019-02-08T11:17:32.057Z,12.00
2019-02-08T11:22:34.637Z,11.27
2019-02-08T11:27:36.790Z,10.13
2019-02-08T11:32:43.165Z,15.17
2019-02-08T11:37:43.836Z,11.37
2019-02-08T11:42:46.348Z,13.43
2019-02-08T11:47:48.823Z,17.00
2019-02-08T11:52:51.476Z,9.43
2019-02-08T11:57:53.986Z,11.27
2019-02-08T12:02:56.501Z,8.90
2019-02-08T12:07:59.157Z,9.57
2019-02-08T12:13:01.793Z,12.77
2019-02-08T12:18:04.583Z,10.77
2019-02-08T12:23:07.457Z,10.53
2019-02-08T12:28:10.247Z,11.73
2019-02-08T12:33:13.936Z,11.47
2019-02-08T12:38:16.973Z,11.17
2019-02-08T12:43:39.438Z,12.50
2019-02-08T12:48:41.785Z,9.10
2019-02-08T12:53:44.036Z,10.73
2019-02-08T12:58:47.240Z,5.67
2019-02-08T13:03:49.560Z,9.03
2019-02-08T13:08:52.071Z,10.97
2019-02-08T13:13:54.357Z,8.67
2019-02-08T13:18:56.769Z,9.57
2019-02-08T13:23:59.344Z,9.13
2019-02-08T13:29:02.220Z,8.70
2019-02-08T13:34:05.177Z,10.77
2019-02-08T13:39:09.122Z,9.20
2019-02-08T13:44:13.462Z,11.43
2019-02-08T13:49:15.678Z,6.50
2019-02-08T13:54:18.016Z,8.47
2019-02-08T13:59:21.112Z,10.03
2019-02-08T14:04:23.896Z,7.93
2019-02-08T14:09:26.209Z,9.53
2019-02-08T14:14:29.164Z,8.20
2019-02-08T14:19:32.552Z,13.13
2019-02-08T14:24:35.121Z,11.53
2019-02-08T14:29:38.111Z,9.70
2019-02-08T14:34:43.701Z,8.47
2019-02-08T14:39:47.693Z,6.87
2019-02-08T14:44:50.312Z,9.10
2019-02-08T14:49:53.805Z,7.20
2019-02-08T14:54:56.401Z,10.70
2019-02-08T14:59:59.299Z,9.30
2019-02-08T15:05:02.140Z,7.73
2019-02-08T15:10:10.507Z,7.07
2019-02-08T15:15:13.424Z,9.63
2019-02-08T15:20:23.130Z,11.33
2019-02-08T15:25:26.210Z,8.23
2019-02-08T15:30:31.157Z,7.30
2019-02-08T15:35:35.152Z,7.97
2019-02-08T15:40:41.673Z,7.23
2019-02-08T15:45:51.879Z,11.23
2019-02-08T15:50:54.500Z,7.00
2019-02-08T15:56:02.883Z,6.60
2019-02-08T16:01:09.649Z,7.83
2019-02-08T16:06:12.093Z,8.03
2019-02-08T16:11:14.715Z,7.87
2019-02-08T16:16:17.652Z,7.30
2019-02-08T16:21:20.966Z,10.47
2019-02-08T16:26:24.794Z,6.03
2019-02-08T16:31:27.661Z,5.83
2019-02-08T16:36:30.196Z,7.07
2019-02-08T16:41:32.857Z,7.00
2019-02-08T16:46:35.549Z,7.07
2019-02-08T16:51:38.718Z,5.97
2019-02-08T16:56:41.094Z,6.67
2019-02-08T17:01:43.651Z,11.93
2019-02-08T17:06:46.292Z,6.70
2019-02-08T17:11:48.674Z,12.10
2019-02-08T17:16:51.030Z,7.23
2019-02-08T17:21:53.376Z,9.83
2019-02-08T17:26:56.697Z,14.00
2019-02-08T17:31:58.945Z,8.23
2019-02-08T17:37:01.197Z,5.77
2019-02-08T17:42:04.384Z,10.43
2019-02-08T17:47:06.882Z,7.40
2019-02-08T17:52:09.172Z,8.20
2019-02-08T17:57:11.862Z,7.73
2019-02-08T18:02:15.189Z,7.90
2019-02-08T18:07:17.536Z,8.73
2019-02-08T18:12:19.848Z,10.13
2019-02-08T18:17:22.448Z,7.93
2019-02-08T18:22:25.065Z,9.40
2019-02-08T18:27:27.448Z,16.00
2019-02-08T18:32:29.653Z,6.47
2019-02-08T18:37:32.391Z,10.57
2019-02-08T18:42:37.141Z,9.43
2019-02-08T18:47:40.039Z,9.60
2019-02-08T18:52:44.517Z,11.20
2019-02-08T18:57:47.320Z,10.53
2019-02-08T19:02:50.191Z,9.03
2019-02-08T19:07:53.188Z,9.80
2019-02-08T19:12:55.690Z,13.27
2019-02-08T19:17:58.083Z,10.50
2019-02-08T19:23:00.726Z,11.43
2019-02-08T19:28:05.728Z,8.37
2019-02-08T19:33:10.834Z,13.83
2019-02-08T19:38:13.828Z,9.27
2019-02-08T19:43:16.709Z,7.17
2019-02-08T19:48:20.833Z,7.73
2019-02-08T19:53:23.723Z,10.60
2019-02-08T19:58:34.091Z,12.07
2019-02-08T20:03:30.415Z,10.60
2019-02-08T20:08:32.702Z,10.00
2019-02-08T20:13:34.908Z,8.77
2019-02-08T20:18:37.131Z,9.27
2019-02-08T20:23:39.529Z,8.17
2019-02-08T20:28:42.769Z,6.77
2019-02-08T20:33:46.117Z,8.47
2019-02-08T20:38:48.654Z,10.80
2019-02-08T20:43:51.382Z,10.20
2019-02-08T20:48:54.314Z,6.80
2019-02-08T20:53:56.879Z,9.60
2019-02-08T20:58:59.767Z,9.83
2019-02-08T21:04:02.215Z,10.40
2019-02-08T21:09:12.408Z,8.87
2019-02-08T21:14:15.043Z,9.43
2019-02-08T21:19:17.677Z,14.27
2019-02-08T21:24:19.907Z,9.87
2019-02-08T21:29:22.464Z,7.90
2019-02-08T21:34:24.822Z,10.37
2019-02-08T21:39:27.684Z,11.37
2019-02-08T21:44:30.267Z,11.90
2019-02-08T21:49:33.143Z,9.73
2019-02-08T21:54:37.974Z,8.93
2019-02-08T21:59:40.631Z,13.13
2019-02-08T22:04:42.993Z,12.77
2019-02-08T22:09:45.818Z,12.27
2019-02-08T22:14:48.393Z,11.63
2019-02-08T22:19:50.682Z,10.70
2019-02-08T22:24:53.162Z,12.40
2019-02-08T22:29:55.514Z,11.40
2019-02-08T22:34:58.856Z,11.93
2019-02-08T22:40:01.297Z,10.50
2019-02-08T22:45:09.142Z,11.30
2019-02-08T22:50:12.357Z,12.53
2019-02-08T22:55:17.459Z,13.07
2019-02-08T23:01:26.912Z,14.50
2019-02-08T23:06:29.423Z,13.17
2019-02-08T23:11:32.282Z,14.43
2019-02-08T23:16:34.858Z,12.00
2019-02-08T23:21:37.319Z,12.43
2019-02-08T23:26:40.083Z,13.67
2019-02-08T23:31:42.666Z,15.30
2019-02-08T23:36:45.260Z,11.00
2019-02-08T23:41:48.646Z,13.80
2019-02-08T23:46:51.270Z,12.03
2019-02-08T23:51:54.993Z,14.13
2019-02-08T23:56:58.214Z,11.17
